Time;durP1;ratioP1;P1;durP2;ratioP2;P2;SDS_P1;SDS_P2;PMS_P1;PMS_P2;Temp;Humidity;BMP_temperature;BMP_pressure;BME280_temperature;BME280_humidity;BME280_pressure;Samples;Min_cycle;Max_cycle;Signal;HPM_P1;HPM_P2
2022/06/15 00:00:42;;;;;;;8.75;3.13;;;;;;;;;;4875249;29;20064;-60
2022/06/15 00:03:09;;;;;;;10.45;3.47;;;;;;;;;;4876141;29;20044;-61
2022/06/15 00:05:35;;;;;;;9.07;3.42;;;;;;;;;;4877098;29;20041;-59
2022/06/15 00:08:00;;;;;;;5.90;3.10;;;;;;;;;;4852307;29;20044;-60
2022/06/15 00:10:25;;;;;;;8.10;3.30;;;;;;;;;;4872952;29;20033;-60
2022/06/15 00:12:51;;;;;;;10.30;3.50;;;;;;;;;;4877586;29;20036;-61
2022/06/15 00:15:17;;;;;;;8.48;3.20;;;;;;;;;;4873439;29;20105;-61
2022/06/15 00:17:42;;;;;;;7.93;3.40;;;;;;;;;;4876619;29;20390;-60
2022/06/15 00:20:09;;;;;;;8.63;3.53;;;;;;;;;;4877618;29;20045;-61
2022/06/15 00:22:34;;;;;;;8.43;3.42;;;;;;;;;;4879869;29;20033;-60
2022/06/15 00:25:00;;;;;;;10.20;3.55;;;;;;;;;;4881140;29;20033;-61
2022/06/15 00:27:25;;;;;;;12.85;3.72;;;;;;;;;;4877674;29;20491;-61
2022/06/15 00:29:50;;;;;;;8.95;3.70;;;;;;;;;;4879877;29;20056;-60
2022/06/15 00:32:16;;;;;;;8.90;3.70;;;;;;;;;;4862764;29;20036;-60
2022/06/15 00:34:41;;;;;;;8.95;3.67;;;;;;;;;;4866619;29;20033;-60
2022/06/15 00:37:07;;;;;;;7.28;3.60;;;;;;;;;;4878562;29;20133;-61
2022/06/15 00:39:33;;;;;;;7.70;3.60;;;;;;;;;;4879159;29;20041;-61
2022/06/15 00:41:59;;;;;;;7.07;3.60;;;;;;;;;;4878600;29;20033;-60
2022/06/15 00:44:24;;;;;;;9.27;3.72;;;;;;;;;;4879286;29;20698;-60
2022/06/15 00:46:53;;;;;;;7.60;3.63;;;;;;;;;;4880118;29;20116;-59
2022/06/15 00:49:29;;;;;;;10.20;4.03;;;;;;;;;;4879208;29;20037;-60
2022/06/15 00:51:59;;;;;;;8.68;3.95;;;;;;;;;;4862221;29;20482;-60
2022/06/15 00:54:25;;;;;;;7.78;3.80;;;;;;;;;;4878316;29;20041;-60
2022/06/15 00:56:52;;;;;;;8.85;3.80;;;;;;;;;;4862086;29;20030;-60
2022/06/15 00:59:29;;;;;;;6.03;3.92;;;;;;;;;;4865569;29;20033;-60
2022/06/15 01:01:54;;;;;;;8.43;4.00;;;;;;;;;;4865555;29;20128;-60
2022/06/15 01:04:21;;;;;;;9.15;4.10;;;;;;;;;;4855310;29;20116;-60
2022/06/15 01:07:04;;;;;;;10.68;3.78;;;;;;;;;;4870746;29;20037;-60
2022/06/15 01:09:35;;;;;;;7.65;3.92;;;;;;;;;;4877952;29;20040;-60
2022/06/15 01:12:07;;;;;;;7.90;3.30;;;;;;;;;;4878181;29;20033;-60
2022/06/15 01:14:56;;;;;;;9.52;4.30;;;;;;;;;;4878608;29;20478;-60
2022/06/15 01:17:33;;;;;;;9.98;3.85;;;;;;;;;;4876978;29;20033;-60
2022/06/15 01:20:36;;;;;;;9.40;3.90;;;;;;;;;;4880446;29;20056;-60
2022/06/15 01:23:26;;;;;;;7.80;3.63;;;;;;;;;;4878750;29;20513;-60
2022/06/15 01:26:10;;;;;;;7.43;4.70;;;;;;;;;;4879421;29;20033;-59
2022/06/15 01:28:52;;;;;;;8.48;3.75;;;;;;;;;;4877310;29;20036;-60
2022/06/15 01:31:36;;;;;;;11.07;3.83;;;;;;;;;;4879170;29;20119;-60
2022/06/15 01:34:10;;;;;;;7.13;3.80;;;;;;;;;;4878019;29;20049;-59
2022/06/15 01:36:44;;;;;;;6.28;3.80;;;;;;;;;;4879631;29;20057;-61
2022/06/15 01:39:39;;;;;;;11.40;3.70;;;;;;;;;;4874222;29;20028;-61
2022/06/15 01:42:11;;;;;;;11.30;3.70;;;;;;;;;;4865763;29;20068;-61
2022/06/15 01:44:44;;;;;;;11.52;3.97;;;;;;;;;;4863460;29;20037;-60
2022/06/15 01:47:14;;;;;;;7.38;3.75;;;;;;;;;;4875484;29;20470;-61
2022/06/15 01:50:17;;;;;;;7.20;3.95;;;;;;;;;;4879942;29;20041;-59
2022/06/15 01:53:02;;;;;;;8.93;3.80;;;;;;;;;;4848521;29;20146;-60
2022/06/15 01:55:40;;;;;;;8.88;4.10;;;;;;;;;;4882889;29;20874;-60
2022/06/15 01:58:08;;;;;;;6.95;3.83;;;;;;;;;;4884219;29;20100;-61
2022/06/15 02:00:34;;;;;;;9.35;4.40;;;;;;;;;;4878742;29;20040;-59
2022/06/15 02:03:18;;;;;;;6.35;3.90;;;;;;;;;;4876978;29;20390;-60
2022/06/15 02:05:47;;;;;;;7.43;3.67;;;;;;;;;;4879741;29;20036;-60
2022/06/15 02:08:18;;;;;;;7.75;3.95;;;;;;;;;;4872589;29;20177;-61
2022/06/15 02:10:52;;;;;;;11.00;4.18;;;;;;;;;;4860993;29;20041;-60
2022/06/15 02:13:30;;;;;;;9.15;4.20;;;;;;;;;;4871638;29;20053;-60
2022/06/15 02:16:02;;;;;;;8.43;3.97;;;;;;;;;;4877384;29;20092;-59
2022/06/15 02:18:32;;;;;;;7.95;3.90;;;;;;;;;;4876860;29;20035;-60
2022/06/15 02:21:09;;;;;;;8.20;3.80;;;;;;;;;;4877424;29;20092;-60
2022/06/15 02:23:38;;;;;;;9.38;4.22;;;;;;;;;;4879278;29;20044;-59
2022/06/15 02:26:04;;;;;;;7.88;4.28;;;;;;;;;;4875841;29;20057;-60
2022/06/15 02:28:34;;;;;;;8.20;4.30;;;;;;;;;;4878486;29;20044;-60
2022/06/15 02:31:00;;;;;;;13.95;4.60;;;;;;;;;;4877428;29;20049;-60
2022/06/15 02:33:30;;;;;;;9.90;4.47;;;;;;;;;;4877953;29;20037;-60
2022/06/15 02:35:58;;;;;;;10.63;4.57;;;;;;;;;;4877165;29;20037;-60
2022/06/15 02:38:25;;;;;;;7.82;4.05;;;;;;;;;;4877113;29;20033;-60
2022/06/15 02:40:50;;;;;;;7.43;4.30;;;;;;;;;;4861189;29;20040;-60
2022/06/15 02:43:20;;;;;;;10.68;4.68;;;;;;;;;;4860229;29;20128;-60
2022/06/15 02:45:47;;;;;;;9.07;4.80;;;;;;;;;;4878069;29;20036;-60
2022/06/15 02:48:14;;;;;;;10.27;4.70;;;;;;;;;;4876379;29;20458;-60
2022/06/15 02:51:03;;;;;;;8.60;4.47;;;;;;;;;;4860138;29;20033;-60
2022/06/15 02:53:31;;;;;;;8.68;4.70;;;;;;;;;;4864773;29;20037;-60
2022/06/15 02:55:58;;;;;;;12.20;4.95;;;;;;;;;;4864954;29;20486;-60
2022/06/15 02:58:28;;;;;;;8.48;4.28;;;;;;;;;;4868623;29;20041;-60
2022/06/15 03:00:55;;;;;;;7.68;4.63;;;;;;;;;;4877928;29;20044;-59
2022/06/15 03:03:22;;;;;;;6.95;4.30;;;;;;;;;;4872144;29;20157;-60
2022/06/15 03:05:49;;;;;;;11.77;4.65;;;;;;;;;;4877802;29;20043;-59
2022/06/15 03:08:15;;;;;;;10.43;4.85;;;;;;;;;;4875225;29;20124;-60
2022/06/15 03:10:41;;;;;;;10.07;4.70;;;;;;;;;;4877767;29;20041;-60
2022/06/15 03:13:06;;;;;;;7.85;4.47;;;;;;;;;;4874981;29;20070;-60
2022/06/15 03:15:32;;;;;;;10.07;5.18;;;;;;;;;;4877852;29;20479;-60
2022/06/15 03:17:57;;;;;;;11.82;4.75;;;;;;;;;;4877164;29;20482;-60
2022/06/15 03:20:23;;;;;;;8.73;4.47;;;;;;;;;;4877607;29;20104;-61
2022/06/15 03:22:49;;;;;;;10.15;4.40;;;;;;;;;;4875327;29;20045;-60
2022/06/15 03:25:15;;;;;;;9.30;4.97;;;;;;;;;;4876456;29;20040;-61
2022/06/15 03:27:40;;;;;;;9.27;4.55;;;;;;;;;;4859825;29;20049;-60
2022/06/15 03:30:07;;;;;;;7.65;4.45;;;;;;;;;;4875887;29;20434;-61
2022/06/15 03:32:33;;;;;;;10.02;4.60;;;;;;;;;;4876624;29;20043;-60
2022/06/15 03:34:58;;;;;;;9.68;4.75;;;;;;;;;;4878209;29;20029;-60
2022/06/15 03:37:24;;;;;;;8.07;4.57;;;;;;;;;;4876032;29;20036;-60
2022/06/15 03:39:49;;;;;;;15.13;5.10;;;;;;;;;;4876650;29;20045;-60
2022/06/15 03:42:18;;;;;;;8.73;4.45;;;;;;;;;;4874990;29;20041;-61
2022/06/15 03:44:44;;;;;;;7.88;4.38;;;;;;;;;;4878117;29;20029;-60
2022/06/15 03:47:16;;;;;;;13.57;5.10;;;;;;;;;;4875055;29;20041;-60
2022/06/15 03:49:47;;;;;;;8.57;4.63;;;;;;;;;;4878295;29;20029;-60
2022/06/15 03:52:12;;;;;;;7.17;4.57;;;;;;;;;;4875983;29;20037;-61
2022/06/15 03:54:38;;;;;;;8.73;4.78;;;;;;;;;;4874122;29;20032;-60
2022/06/15 03:57:03;;;;;;;8.88;4.65;;;;;;;;;;4874765;29;20029;-60
2022/06/15 03:59:30;;;;;;;10.73;5.18;;;;;;;;;;4877192;29;20120;-60
2022/06/15 04:01:55;;;;;;;10.10;5.07;;;;;;;;;;4848903;29;20052;-60
2022/06/15 04:04:21;;;;;;;11.82;4.78;;;;;;;;;;4874228;29;20033;-60
2022/06/15 04:06:46;;;;;;;6.72;4.45;;;;;;;;;;4878126;29;20036;-59
2022/06/15 04:09:12;;;;;;;10.15;4.72;;;;;;;;;;4877245;29;20466;-60
2022/06/15 04:14:22;;;;;;;8.55;4.40;;;;;;;;;;4872452;29;20035;-60
2022/06/15 04:16:53;;;;;;;9.20;4.93;;;;;;;;;;4877488;29;20033;-60
2022/06/15 04:19:20;;;;;;;9.15;4.35;;;;;;;;;;4875753;29;20044;-60
2022/06/15 04:21:45;;;;;;;8.85;4.65;;;;;;;;;;4878121;29;20040;-59
2022/06/15 04:24:11;;;;;;;6.97;4.53;;;;;;;;;;4874304;29;20041;-59
2022/06/15 04:26:38;;;;;;;8.75;4.70;;;;;;;;;;4874108;29;20667;-60
2022/06/15 04:29:04;;;;;;;8.80;4.60;;;;;;;;;;4875855;29;20045;-60
2022/06/15 04:31:29;;;;;;;14.43;4.90;;;;;;;;;;4875801;29;20136;-60
2022/06/15 04:33:55;;;;;;;10.32;4.65;;;;;;;;;;4873845;29;20092;-60
2022/06/15 04:36:23;;;;;;;8.52;4.80;;;;;;;;;;4876821;29;20037;-60
2022/06/15 04:38:49;;;;;;;10.27;4.68;;;;;;;;;;4877015;29;20037;-60
2022/06/15 04:41:14;;;;;;;7.90;4.05;;;;;;;;;;4877233;29;20462;-61
2022/06/15 04:43:40;;;;;;;12.73;4.85;;;;;;;;;;4875920;29;20041;-60
2022/06/15 04:46:05;;;;;;;9.32;4.43;;;;;;;;;;4875462;29;20036;-60
2022/06/15 04:48:31;;;;;;;8.52;4.70;;;;;;;;;;4876109;29;20412;-60
2022/06/15 04:50:56;;;;;;;10.38;4.78;;;;;;;;;;4874531;29;20084;-60
2022/06/15 04:53:22;;;;;;;10.57;4.43;;;;;;;;;;4874769;29;20093;-61
2022/06/15 04:55:47;;;;;;;11.02;4.70;;;;;;;;;;4876979;29;20074;-60
2022/06/15 04:58:12;;;;;;;10.65;4.60;;;;;;;;;;4875072;29;20044;-60
2022/06/15 05:00:40;;;;;;;10.65;4.90;;;;;;;;;;4872564;29;20292;-61
2022/06/15 05:03:07;;;;;;;8.65;4.50;;;;;;;;;;4873469;29;20082;-61
2022/06/15 05:05:33;;;;;;;10.48;4.47;;;;;;;;;;4877804;29;20060;-61
2022/06/15 05:07:58;;;;;;;9.18;4.38;;;;;;;;;;4879453;29;20124;-60
2022/06/15 05:10:25;;;;;;;8.82;4.45;;;;;;;;;;4878545;29;20504;-61
2022/06/15 05:12:52;;;;;;;8.75;4.50;;;;;;;;;;4879762;29;20044;-60
2022/06/15 05:15:18;;;;;;;9.98;4.60;;;;;;;;;;4874420;29;20112;-63
2022/06/15 05:17:45;;;;;;;9.45;4.22;;;;;;;;;;4875678;29;20177;-63
2022/06/15 05:20:14;;;;;;;8.38;4.53;;;;;;;;;;4878501;29;20115;-62
2022/06/15 05:22:39;;;;;;;8.95;4.68;;;;;;;;;;4882620;29;20037;-66
2022/06/15 05:25:07;;;;;;;6.57;4.50;;;;;;;;;;4878969;29;20060;-62
2022/06/15 05:27:33;;;;;;;11.15;5.00;;;;;;;;;;4879507;29;20064;-63
2022/06/15 05:29:59;;;;;;;9.02;4.55;;;;;;;;;;4879294;29;20044;-67
2022/06/15 05:32:25;;;;;;;9.05;4.80;;;;;;;;;;4878272;29;20196;-68
2022/06/15 05:34:50;;;;;;;7.65;4.60;;;;;;;;;;4877380;29;20036;-68
2022/06/15 05:37:15;;;;;;;8.80;4.60;;;;;;;;;;4879226;29;20128;-67
2022/06/15 05:39:41;;;;;;;9.60;5.00;;;;;;;;;;4878644;29;20037;-67
2022/06/15 05:42:06;;;;;;;7.57;4.32;;;;;;;;;;4879842;29;20480;-65
2022/06/15 05:46:59;;;;;;;7.88;4.63;;;;;;;;;;4879403;29;20494;-65
2022/06/15 05:49:25;;;;;;;7.93;4.50;;;;;;;;;;4878056;29;20077;-67
2022/06/15 05:51:51;;;;;;;9.95;4.60;;;;;;;;;;4860151;29;20029;-66
2022/06/15 05:54:16;;;;;;;11.65;4.50;;;;;;;;;;4879610;29;20041;-64
2022/06/15 05:56:42;;;;;;;10.55;4.80;;;;;;;;;;4878236;29;20478;-65
2022/06/15 05:59:07;;;;;;;9.32;4.78;;;;;;;;;;4879694;29;20120;-67
2022/06/15 06:01:35;;;;;;;7.43;4.43;;;;;;;;;;4877176;29;20466;-65
2022/06/15 06:04:01;;;;;;;8.63;5.13;;;;;;;;;;4859610;29;20067;-64
2022/06/15 06:06:28;;;;;;;8.38;4.50;;;;;;;;;;4877519;29;20045;-62
2022/06/15 06:08:54;;;;;;;9.57;4.70;;;;;;;;;;4875433;29;20029;-67
2022/06/15 06:11:21;;;;;;;13.10;4.43;;;;;;;;;;4879147;29;20485;-66
2022/06/15 06:13:47;;;;;;;8.27;4.68;;;;;;;;;;4843490;29;20053;-66
2022/06/15 06:16:13;;;;;;;8.40;4.55;;;;;;;;;;4860937;29;20033;-67
2022/06/15 06:18:39;;;;;;;9.57;4.53;;;;;;;;;;4857862;29;20032;-66
2022/06/15 06:21:06;;;;;;;10.18;4.82;;;;;;;;;;4879772;29;20033;-65
2022/06/15 06:23:33;;;;;;;7.95;4.30;;;;;;;;;;4876244;29;20406;-64
2022/06/15 06:25:59;;;;;;;12.20;5.10;;;;;;;;;;4876025;29;20037;-66
2022/06/15 06:28:31;;;;;;;9.43;4.68;;;;;;;;;;4878335;29;20037;-65
2022/06/15 06:30:58;;;;;;;11.13;4.70;;;;;;;;;;4877132;29;20609;-64
2022/06/15 06:33:29;;;;;;;11.15;4.75;;;;;;;;;;4861473;29;20040;-65
2022/06/15 06:35:56;;;;;;;10.55;5.03;;;;;;;;;;4878402;29;20490;-66
2022/06/15 06:38:22;;;;;;;10.65;4.70;;;;;;;;;;4878665;29;20044;-65
2022/06/15 06:40:49;;;;;;;9.68;4.97;;;;;;;;;;4877242;29;20036;-65
2022/06/15 06:43:15;;;;;;;7.88;4.47;;;;;;;;;;4877905;29;20112;-66
2022/06/15 06:45:41;;;;;;;8.43;4.47;;;;;;;;;;4875000;29;20364;-66
2022/06/15 06:48:06;;;;;;;8.65;4.70;;;;;;;;;;4866808;29;20042;-66
2022/06/15 06:50:32;;;;;;;7.65;4.70;;;;;;;;;;4868245;29;20043;-65
2022/06/15 06:52:57;;;;;;;8.48;4.95;;;;;;;;;;4862094;29;20432;-66
2022/06/15 06:55:26;;;;;;;9.35;4.75;;;;;;;;;;4876126;29;20387;-66
2022/06/15 06:57:56;;;;;;;7.93;4.55;;;;;;;;;;4878847;29;20037;-66
2022/06/15 07:00:21;;;;;;;8.02;4.70;;;;;;;;;;4877017;29;20040;-67
2022/06/15 07:02:47;;;;;;;8.93;4.32;;;;;;;;;;4877224;29;20509;-67
2022/06/15 07:05:13;;;;;;;9.05;4.40;;;;;;;;;;4852171;29;20402;-67
2022/06/15 07:07:39;;;;;;;8.52;4.60;;;;;;;;;;4871839;29;20043;-65
2022/06/15 07:10:05;;;;;;;12.20;4.53;;;;;;;;;;4854659;29;20407;-65
2022/06/15 07:12:32;;;;;;;7.72;4.63;;;;;;;;;;4851313;29;20041;-64
2022/06/15 07:14:58;;;;;;;8.48;4.32;;;;;;;;;;4857354;29;20040;-65
2022/06/15 07:17:24;;;;;;;9.23;4.60;;;;;;;;;;4860848;29;20041;-67
2022/06/15 07:19:49;;;;;;;7.53;4.43;;;;;;;;;;4861120;29;20040;-65
2022/06/15 07:22:15;;;;;;;9.00;4.50;;;;;;;;;;4847777;29;20036;-66
2022/06/15 07:24:40;;;;;;;7.53;4.13;;;;;;;;;;4877362;29;20111;-66
2022/06/15 07:27:06;;;;;;;8.32;4.30;;;;;;;;;;4876284;29;20053;-67
2022/06/15 07:29:31;;;;;;;8.50;4.28;;;;;;;;;;4875813;29;20041;-66
2022/06/15 07:31:57;;;;;;;8.10;4.10;;;;;;;;;;4877336;29;20061;-67
2022/06/15 07:34:23;;;;;;;11.40;4.40;;;;;;;;;;4877561;29;20043;-66
2022/06/15 07:36:48;;;;;;;7.72;3.58;;;;;;;;;;4876670;29;20044;-67
2022/06/15 07:39:17;;;;;;;7.90;4.00;;;;;;;;;;4874854;29;20347;-66
2022/06/15 07:41:44;;;;;;;6.50;3.85;;;;;;;;;;4872059;29;20119;-65
2022/06/15 07:44:10;;;;;;;7.85;3.55;;;;;;;;;;4876871;29;20133;-67
2022/06/15 07:46:35;;;;;;;6.97;4.20;;;;;;;;;;4877334;29;20041;-67
2022/06/15 07:51:54;;;;;;;8.27;4.00;;;;;;;;;;4877126;29;20838;-65
2022/06/15 07:54:22;;;;;;;8.55;4.18;;;;;;;;;;4876766;29;20037;-66
2022/06/15 07:56:54;;;;;;;8.55;4.28;;;;;;;;;;4876118;29;20069;-66
2022/06/15 07:59:20;;;;;;;9.57;4.32;;;;;;;;;;4878133;29;20463;-66
2022/06/15 08:01:46;;;;;;;7.75;3.85;;;;;;;;;;4875090;29;20179;-66
2022/06/15 08:04:13;;;;;;;6.60;4.05;;;;;;;;;;4877698;29;20502;-64
2022/06/15 08:06:41;;;;;;;14.25;4.15;;;;;;;;;;4876075;29;20037;-65
2022/06/15 08:09:09;;;;;;;14.18;4.05;;;;;;;;;;4877891;29;20052;-63
2022/06/15 08:11:36;;;;;;;7.72;3.65;;;;;;;;;;4874803;29;20084;-64
2022/06/15 08:14:01;;;;;;;9.57;3.70;;;;;;;;;;4877081;29;20037;-64
2022/06/15 08:16:27;;;;;;;8.68;3.70;;;;;;;;;;4875156;29;20044;-63
2022/06/15 08:18:56;;;;;;;7.00;3.72;;;;;;;;;;4877912;29;20070;-64
2022/06/15 08:21:29;;;;;;;8.50;3.95;;;;;;;;;;4876638;29;20120;-63
2022/06/15 08:23:56;;;;;;;7.00;3.70;;;;;;;;;;4872578;29;20045;-65
2022/06/15 08:26:25;;;;;;;8.20;3.50;;;;;;;;;;4876757;29;20466;-65
2022/06/15 08:28:54;;;;;;;9.45;3.72;;;;;;;;;;4858031;29;20037;-66
2022/06/15 08:31:20;;;;;;;8.68;3.42;;;;;;;;;;4874038;29;20025;-66
2022/06/15 08:33:46;;;;;;;8.45;3.80;;;;;;;;;;4875328;29;20029;-66
2022/06/15 08:36:12;;;;;;;8.80;3.50;;;;;;;;;;4876559;29;20356;-65
2022/06/15 08:38:39;;;;;;;9.15;3.83;;;;;;;;;;4875989;29;20037;-65
2022/06/15 08:41:19;;;;;;;6.32;3.35;;;;;;;;;;4879670;29;20044;-64
2022/06/15 08:44:03;;;;;;;6.40;3.50;;;;;;;;;;4874226;29;20049;-64
2022/06/15 08:47:06;;;;;;;6.75;3.17;;;;;;;;;;4874895;29;20045;-64
2022/06/15 08:50:01;;;;;;;7.22;3.20;;;;;;;;;;4878091;29;20036;-66
2022/06/15 08:52:36;;;;;;;5.93;3.42;;;;;;;;;;4865919;29;20053;-65
2022/06/15 08:55:36;;;;;;;6.57;2.78;;;;;;;;;;4879411;29;20486;-67
2022/06/15 08:58:10;;;;;;;8.35;3.30;;;;;;;;;;4854518;29;20040;-65
2022/06/15 09:00:39;;;;;;;6.85;3.70;;;;;;;;;;4880169;29;20041;-66
2022/06/15 09:03:04;;;;;;;6.97;3.28;;;;;;;;;;4878418;29;20087;-65
2022/06/15 09:06:25;;;;;;;7.97;3.50;;;;;;;;;;4878722;29;20498;-65
2022/06/15 09:09:23;;;;;;;10.77;3.25;;;;;;;;;;4832240;29;20128;-65
2022/06/15 09:15:14;;;;;;;7.40;3.30;;;;;;;;;;4876695;29;20101;-64
2022/06/15 09:17:40;;;;;;;8.32;3.30;;;;;;;;;;4848934;29;20048;-63
2022/06/15 09:20:18;;;;;;;6.47;3.10;;;;;;;;;;4880403;29;20132;-63
2022/06/15 09:22:55;;;;;;;7.63;3.20;;;;;;;;;;4861142;29;20087;-64
2022/06/15 09:25:31;;;;;;;7.22;3.33;;;;;;;;;;4879563;29;20045;-65
2022/06/15 09:28:01;;;;;;;7.30;3.20;;;;;;;;;;4857148;29;20057;-64
2022/06/15 09:30:31;;;;;;;8.25;3.30;;;;;;;;;;4858467;29;20128;-65
2022/06/15 09:33:33;;;;;;;6.03;3.22;;;;;;;;;;4877807;29;20041;-63
2022/06/15 09:36:07;;;;;;;8.77;3.20;;;;;;;;;;4868113;29;20093;-65
2022/06/15 09:38:33;;;;;;;8.98;3.40;;;;;;;;;;4876626;29;20054;-63
2022/06/15 09:41:38;;;;;;;7.53;3.10;;;;;;;;;;4861905;29;20119;-64
2022/06/15 09:44:33;;;;;;;6.93;3.00;;;;;;;;;;4877931;29;20474;-64
2022/06/15 09:47:37;;;;;;;5.72;2.72;;;;;;;;;;4863742;29;20037;-64
2022/06/15 09:50:27;;;;;;;6.43;3.20;;;;;;;;;;4878471;29;20041;-64
2022/06/15 09:53:04;;;;;;;8.40;3.40;;;;;;;;;;4862762;29;20101;-64
2022/06/15 09:55:45;;;;;;;6.80;2.92;;;;;;;;;;4878828;29;20112;-64
2022/06/15 09:58:15;;;;;;;13.25;3.40;;;;;;;;;;4880076;29;20487;-59
2022/06/15 10:00:41;;;;;;;10.05;5.95;;;;;;;;;;4861571;29;20044;-61
2022/06/15 10:03:18;;;;;;;88.75;79.18;;;;;;;;;;4876249;29;20080;-61
2022/06/15 10:05:46;;;;;;;6.85;3.60;;;;;;;;;;4876460;29;20064;-63
2022/06/15 10:08:14;;;;;;;6.53;3.03;;;;;;;;;;4879460;29;20033;-63
2022/06/15 10:10:43;;;;;;;11.20;3.35;;;;;;;;;;4877648;29;20044;-63
2022/06/15 10:13:17;;;;;;;8.40;3.10;;;;;;;;;;4878496;29;20033;-63
2022/06/15 10:15:42;;;;;;;6.47;3.20;;;;;;;;;;4875783;29;20041;-63
2022/06/15 10:18:43;;;;;;;9.73;3.60;;;;;;;;;;4879394;29;20036;-59
2022/06/15 10:21:14;;;;;;;9.00;3.78;;;;;;;;;;4845578;29;20045;-67
2022/06/15 10:23:57;;;;;;;7.55;3.17;;;;;;;;;;4877687;29;20109;-67
2022/06/15 10:26:49;;;;;;;10.07;2.90;;;;;;;;;;4877584;29;20057;-63
2022/06/15 10:29:14;;;;;;;6.45;3.05;;;;;;;;;;4878081;29;20033;-63
2022/06/15 10:31:56;;;;;;;5.07;2.90;;;;;;;;;;4877197;29;20497;-63
2022/06/15 10:34:28;;;;;;;6.30;3.17;;;;;;;;;;4878224;29;20036;-61
2022/06/15 10:36:57;;;;;;;6.93;2.95;;;;;;;;;;4879334;29;20029;-59
2022/06/15 10:39:26;;;;;;;6.07;2.90;;;;;;;;;;4877123;29;20041;-60
2022/06/15 10:41:57;;;;;;;8.07;3.03;;;;;;;;;;4877875;29;20376;-60
2022/06/15 10:44:29;;;;;;;6.00;2.90;;;;;;;;;;4861948;29;20037;-63
2022/06/15 10:46:55;;;;;;;5.85;2.90;;;;;;;;;;4879041;29;20064;-65
2022/06/15 10:49:21;;;;;;;7.88;3.17;;;;;;;;;;4877690;29;20163;-65
2022/06/15 10:51:49;;;;;;;8.20;3.00;;;;;;;;;;4872860;29;20037;-67
2022/06/15 10:54:17;;;;;;;10.10;3.42;;;;;;;;;;4877776;29;20107;-67
2022/06/15 11:02:28;;;;;;;6.07;2.90;;;;;;;;;;4877881;29;20143;-69
2022/06/15 11:05:23;;;;;;;99.88;84.35;;;;;;;;;;4877558;29;20394;-67
2022/06/15 11:07:51;;;;;;;80.72;44.65;;;;;;;;;;4859218;29;20043;-70
2022/06/15 11:10:34;;;;;;;74.78;53.95;;;;;;;;;;4873499;29;20043;-68
2022/06/15 11:13:29;;;;;;;155.80;96.45;;;;;;;;;;4878489;29;20040;-66
2022/06/15 11:19:05;;;;;;;8.98;3.33;;;;;;;;;;4877589;29;20394;-65
2022/06/15 11:21:54;;;;;;;7.70;2.90;;;;;;;;;;4877430;29;20041;-63
2022/06/15 11:24:34;;;;;;;5.38;2.70;;;;;;;;;;4876560;29;20049;-64
2022/06/15 11:27:08;;;;;;;8.93;2.90;;;;;;;;;;4876789;29;20093;-64
2022/06/15 11:29:58;;;;;;;6.47;2.88;;;;;;;;;;4875479;29;20064;-64
2022/06/15 11:32:38;;;;;;;7.50;2.58;;;;;;;;;;4861441;29;20501;-62
2022/06/15 11:35:12;;;;;;;;;;;;;;;;;;4875464;29;20037;-63
2022/06/15 11:37:51;;;;;;;5.75;2.50;;;;;;;;;;4876591;29;19962;-66
2022/06/15 11:40:42;;;;;;;4.55;2.50;;;;;;;;;;4876644;29;20125;-65
2022/06/15 11:43:16;;;;;;;5.93;2.50;;;;;;;;;;4877459;29;20044;-64
2022/06/15 11:46:09;;;;;;;5.50;2.38;;;;;;;;;;4876675;29;20033;-64
2022/06/15 11:48:35;;;;;;;6.53;2.60;;;;;;;;;;4859761;29;20048;-62
2022/06/15 11:51:12;;;;;;;5.75;2.47;;;;;;;;;;4876447;29;20394;-65
2022/06/15 11:54:04;;;;;;;6.00;2.40;;;;;;;;;;4874112;29;20040;-65
2022/06/15 11:56:45;;;;;;;7.00;2.50;;;;;;;;;;4841982;29;20037;-64
2022/06/15 11:59:36;;;;;;;4.68;2.28;;;;;;;;;;4873826;29;20176;-65
2022/06/15 12:02:30;;;;;;;4.38;2.20;;;;;;;;;;4860537;29;20419;-66
2022/06/15 12:05:30;;;;;;;6.97;2.50;;;;;;;;;;4860911;29;20032;-67
2022/06/15 12:08:01;;;;;;;5.13;2.40;;;;;;;;;;4876792;29;20037;-66
2022/06/15 12:10:44;;;;;;;4.32;2.30;;;;;;;;;;4871937;29;20096;-65
2022/06/15 12:13:34;;;;;;;8.10;2.28;;;;;;;;;;4878052;29;20386;-66
2022/06/15 12:16:35;;;;;;;7.20;2.83;;;;;;;;;;4881071;29;20041;-67
2022/06/15 12:19:36;;;;;;;5.57;2.60;;;;;;;;;;4879411;29;20137;-66
2022/06/15 12:22:15;;;;;;;5.28;3.00;;;;;;;;;;4863160;29;20045;-64
2022/06/15 12:24:50;;;;;;;6.38;3.00;;;;;;;;;;4879520;29;20048;-63
2022/06/15 12:27:31;;;;;;;7.70;2.70;;;;;;;;;;4880252;29;20049;-66
2022/06/15 12:30:02;;;;;;;5.50;2.30;;;;;;;;;;4881667;29;20064;-65
2022/06/15 12:33:12;;;;;;;6.35;2.90;;;;;;;;;;4877379;29;20045;-65
2022/06/15 12:35:40;;;;;;;6.80;2.97;;;;;;;;;;4855454;29;20435;-65
2022/06/15 12:38:13;;;;;;;6.97;2.75;;;;;;;;;;4881403;29;20037;-63
2022/06/15 12:40:40;;;;;;;5.47;2.55;;;;;;;;;;4879206;29;20120;-63
2022/06/15 12:43:25;;;;;;;4.90;2.50;;;;;;;;;;4881688;29;20041;-67
2022/06/15 12:45:54;;;;;;;8.35;2.30;;;;;;;;;;4879179;29;20043;-68
2022/06/15 12:48:23;;;;;;;;;;;;;;;;;;4880075;29;20041;-65
2022/06/15 12:51:08;;;;;;;6.45;2.20;;;;;;;;;;4879599;29;19916;-68
2022/06/15 12:53:53;;;;;;;4.88;2.47;;;;;;;;;;4871668;29;20048;-70
2022/06/15 12:56:58;;;;;;;6.43;2.25;;;;;;;;;;4868927;29;20029;-70
2022/06/15 12:59:36;;;;;;;7.55;2.70;;;;;;;;;;4878110;29;20037;-69
2022/06/15 13:02:22;;;;;;;6.75;2.70;;;;;;;;;;4878100;29;20041;-70
2022/06/15 13:05:01;;;;;;;6.78;2.20;;;;;;;;;;4879377;29;20029;-70
2022/06/15 13:07:29;;;;;;;;;;;;;;;;;;4879761;29;20049;-65
2022/06/15 13:10:06;;;;;;;8.80;2.40;;;;;;;;;;4879162;29;19915;-69
2022/06/15 13:12:38;;;;;;;5.47;2.63;;;;;;;;;;4879824;29;20033;-69
2022/06/15 13:15:05;;;;;;;6.65;2.35;;;;;;;;;;4879166;29;20089;-69
2022/06/15 13:18:11;;;;;;;5.70;2.60;;;;;;;;;;4863536;29;20049;-69
2022/06/15 13:20:45;;;;;;;4.80;2.30;;;;;;;;;;4860829;29;20551;-69
2022/06/15 13:23:39;;;;;;;5.40;2.70;;;;;;;;;;4880434;29;20037;-70
2022/06/15 13:26:11;;;;;;;7.47;2.35;;;;;;;;;;4869407;29;20116;-68
2022/06/15 13:28:38;;;;;;;6.80;2.70;;;;;;;;;;4877898;29;20037;-73
2022/06/15 13:31:09;;;;;;;7.28;2.85;;;;;;;;;;4880286;29;20033;-70
2022/06/15 13:33:46;;;;;;;5.60;2.30;;;;;;;;;;4877148;29;20043;-71
2022/06/15 13:36:12;;;;;;;5.45;2.30;;;;;;;;;;4880273;29;20538;-70
2022/06/15 13:38:40;;;;;;;6.00;2.47;;;;;;;;;;4878653;29;20169;-70
2022/06/15 13:41:13;;;;;;;5.20;2.17;;;;;;;;;;4880295;29;20029;-70
2022/06/15 13:43:51;;;;;;;4.90;2.08;;;;;;;;;;4876114;29;20529;-69
2022/06/15 13:46:25;;;;;;;7.07;2.33;;;;;;;;;;4880218;29;20033;-67
2022/06/15 13:48:53;;;;;;;4.10;2.15;;;;;;;;;;4874968;29;20036;-69
2022/06/15 13:51:27;;;;;;;6.13;2.33;;;;;;;;;;4879905;29;20037;-68
2022/06/15 13:54:08;;;;;;;4.95;2.20;;;;;;;;;;4878287;29;20040;-68
2022/06/15 13:57:11;;;;;;;5.40;2.08;;;;;;;;;;4860578;29;20084;-69
2022/06/15 14:00:05;;;;;;;7.22;2.40;;;;;;;;;;4872540;29;20546;-66
2022/06/15 14:03:00;;;;;;;4.72;2.00;;;;;;;;;;4875985;29;20029;-67
2022/06/15 14:05:41;;;;;;;5.47;2.35;;;;;;;;;;4811687;29;20108;-65
2022/06/15 14:08:25;;;;;;;5.95;2.30;;;;;;;;;;4861217;29;20029;-69
2022/06/15 14:11:02;;;;;;;5.28;2.10;;;;;;;;;;4877421;29;20041;-69
2022/06/15 14:14:04;;;;;;;5.63;2.60;;;;;;;;;;4877824;29;20124;-69
2022/06/15 14:16:32;;;;;;;8.00;2.55;;;;;;;;;;4855460;29;20032;-74
2022/06/15 14:19:01;;;;;;;7.20;2.88;;;;;;;;;;4877605;29;20491;-68
2022/06/15 14:21:32;;;;;;;4.22;2.33;;;;;;;;;;4876814;29;20119;-67
2022/06/15 14:24:14;;;;;;;6.70;2.70;;;;;;;;;;4881824;29;20043;-67
2022/06/15 14:26:45;;;;;;;5.43;2.30;;;;;;;;;;4897388;29;20049;-67
2022/06/15 14:29:12;;;;;;;5.97;2.35;;;;;;;;;;4882964;29;20072;-68
2022/06/15 14:31:37;;;;;;;7.88;2.50;;;;;;;;;;4876941;29;20037;-71
2022/06/15 14:34:18;;;;;;;5.57;2.28;;;;;;;;;;4877841;29;20526;-69
2022/06/15 14:37:03;;;;;;;7.60;2.33;;;;;;;;;;4879598;29;20061;-69
2022/06/15 14:39:45;;;;;;;3.72;2.10;;;;;;;;;;4878369;29;20052;-69
2022/06/15 14:42:27;;;;;;;9.13;2.60;;;;;;;;;;4877016;29;20083;-69
2022/06/15 14:44:54;;;;;;;4.13;2.20;;;;;;;;;;4878837;29;20039;-68
2022/06/15 14:47:24;;;;;;;5.45;2.20;;;;;;;;;;4878982;29;20032;-69
2022/06/15 14:49:53;;;;;;;;;;;;;;;;;;4878459;29;20052;-69
2022/06/15 14:52:19;;;;;;;8.32;2.40;;;;;;;;;;4878902;29;19912;-69
2022/06/15 14:54:47;;;;;;;6.18;2.20;;;;;;;;;;4877737;29;20045;-69
2022/06/15 14:57:29;;;;;;;5.55;2.30;;;;;;;;;;4878027;29;20037;-68
2022/06/15 15:00:00;;;;;;;3.80;2.25;;;;;;;;;;4878595;29;20498;-69
2022/06/15 15:02:44;;;;;;;4.25;2.40;;;;;;;;;;4878855;29;20029;-69
2022/06/15 15:05:11;;;;;;;5.40;2.38;;;;;;;;;;4875990;29;20037;-69
2022/06/15 15:10:34;;;;;;;5.45;2.30;;;;;;;;;;4878751;29;20047;-69
2022/06/15 15:13:21;;;;;;;6.03;2.47;;;;;;;;;;4861815;29;20368;-69
2022/06/15 15:15:55;;;;;;;6.30;2.30;;;;;;;;;;4877486;29;20044;-69
2022/06/15 15:18:46;;;;;;;5.97;2.45;;;;;;;;;;4878475;29;20033;-69
2022/06/15 15:21:28;;;;;;;4.13;2.20;;;;;;;;;;4870599;29;20151;-68
2022/06/15 15:24:02;;;;;;;4.05;2.10;;;;;;;;;;4878111;29;20037;-69
2022/06/15 15:26:37;;;;;;;4.68;2.40;;;;;;;;;;4878091;29;20056;-65
2022/06/15 15:35:56;;;;;;;5.05;2.30;;;;;;;;;;4878023;29;20068;-69
2022/06/15 15:38:25;;;;;;;4.25;2.15;;;;;;;;;;4870938;29;20407;-68
2022/06/15 15:40:55;;;;;;;5.18;2.38;;;;;;;;;;4877353;29;20226;-69
2022/06/15 15:43:23;;;;;;;4.70;2.30;;;;;;;;;;4878333;29;20112;-70